createdAt,value
2018-03-19T00:00:38.149Z,40.09
2018-03-19T00:01:38.217Z,41.13
2018-03-19T00:02:38.261Z,40.56
2018-03-19T00:03:38.337Z,39.62
2018-03-19T00:04:38.492Z,40.84
2018-03-19T00:05:38.450Z,41.25
2018-03-19T00:06:38.853Z,41.03
2018-03-19T00:07:38.545Z,40.01
2018-03-19T00:08:38.733Z,39.52
2018-03-19T00:09:39.658Z,39.33
2018-03-19T00:10:38.761Z,39.33
2018-03-19T00:11:38.853Z,39.33
2018-03-19T00:12:38.913Z,40.68
2018-03-19T00:13:39.023Z,38.86
2018-03-19T00:14:38.989Z,39.43
2018-03-19T00:15:39.106Z,39.45
2018-03-19T00:16:39.093Z,39.43
2018-03-19T00:17:39.126Z,39.71
2018-03-19T00:18:40.158Z,40.19
2018-03-19T00:19:39.410Z,40.66
2018-03-19T00:20:39.322Z,39.71
2018-03-19T00:21:39.414Z,40.00
2018-03-19T00:22:41.854Z,39.33
2018-03-19T00:23:40.158Z,40.94
2018-03-19T00:24:39.590Z,39.24
2018-03-19T00:25:39.629Z,39.05
2018-03-19T00:26:39.678Z,38.86
2018-03-19T00:27:39.758Z,38.95
2018-03-19T00:28:39.750Z,38.48
2018-03-19T00:29:39.850Z,38.86
2018-03-19T00:30:40.278Z,40.19
2018-03-19T00:31:39.967Z,40.84
2018-03-19T00:32:39.978Z,39.81
2018-03-19T00:33:40.043Z,40.00
2018-03-19T00:34:40.114Z,40.56
2018-03-19T00:35:41.207Z,41.60
2018-03-19T00:36:41.163Z,41.22
2018-03-19T00:37:40.331Z,40.75
2018-03-19T00:38:40.338Z,40.75
2018-03-19T00:39:40.427Z,40.66
2018-03-19T00:40:40.459Z,40.37
2018-03-19T00:41:40.546Z,39.81
2018-03-19T00:42:40.554Z,39.97
2018-03-19T00:43:40.611Z,39.97
2018-03-19T00:44:40.675Z,39.78
2018-03-19T00:45:40.751Z,39.40
2018-03-19T00:46:40.786Z,39.59
2018-03-19T00:47:40.836Z,40.66
2018-03-19T00:48:41.723Z,41.22
2018-03-19T00:49:41.023Z,40.09
2018-03-19T00:50:41.076Z,40.75
2018-03-19T00:51:41.103Z,40.09
2018-03-19T00:52:41.131Z,39.52
2018-03-19T00:53:41.195Z,39.52
2018-03-19T00:54:41.251Z,40.19
2018-03-19T00:55:42.167Z,40.54
2018-03-19T00:56:42.383Z,40.45
2018-03-19T00:57:41.461Z,42.17
2018-03-19T00:58:41.520Z,42.45
2018-03-19T00:59:41.531Z,41.03
2018-03-19T01:00:41.636Z,41.03
2018-03-19T01:01:41.743Z,41.22
2018-03-19T01:02:41.847Z,41.32
2018-03-19T01:03:41.772Z,41.51
2018-03-19T01:04:41.905Z,41.22
2018-03-19T01:05:41.948Z,41.13
2018-03-19T01:06:41.984Z,41.41
2018-03-19T01:07:42.016Z,41.60
2018-03-19T01:08:42.288Z,41.41
2018-03-19T01:09:42.168Z,41.20
2018-03-19T01:10:42.407Z,41.49
2018-03-19T01:11:42.252Z,42.05
2018-03-19T01:12:42.327Z,42.74
2018-03-19T01:13:42.328Z,42.90
2018-03-19T01:14:42.405Z,42.71
2018-03-19T01:15:42.488Z,42.43
2018-03-19T01:16:43.348Z,41.96
2018-03-19T01:17:42.628Z,41.96
2018-03-19T01:18:42.625Z,42.24
2018-03-19T01:19:42.748Z,42.24
2018-03-19T01:20:42.772Z,42.52
2018-03-19T01:21:42.808Z,42.15
2018-03-19T01:22:42.893Z,41.11
2018-03-19T01:23:42.924Z,41.49
2018-03-19T01:24:43.037Z,41.96
2018-03-19T01:25:43.057Z,41.96
2018-03-19T01:26:43.117Z,41.67
2018-03-19T01:27:43.137Z,41.49
2018-03-19T01:28:43.224Z,41.30
2018-03-19T01:29:43.272Z,41.58
2018-03-19T01:30:43.488Z,41.39
2018-03-19T01:31:43.425Z,41.67
2018-03-19T01:32:43.456Z,42.34
2018-03-19T01:33:43.697Z,42.62
2018-03-19T01:34:43.601Z,42.43
2018-03-19T01:35:43.637Z,42.81
2018-03-19T01:36:43.769Z,43.38
2018-03-19T01:37:43.744Z,44.23
2018-03-19T01:38:43.787Z,43.47
2018-03-19T01:39:43.857Z,43.09
2018-03-19T01:40:44.357Z,42.62
2018-03-19T01:41:43.956Z,42.90
2018-03-19T01:42:43.989Z,43.09
2018-03-19T01:43:44.161Z,42.93
2018-03-19T01:44:44.377Z,43.21
2018-03-19T01:45:44.305Z,42.93
2018-03-19T01:46:44.239Z,42.08
2018-03-19T01:47:44.301Z,41.32
2018-03-19T01:48:44.361Z,41.32
2018-03-19T01:49:44.418Z,41.60
2018-03-19T01:50:44.621Z,41.60
2018-03-19T01:51:44.574Z,41.86
2018-03-19T01:52:44.613Z,41.51
2018-03-19T01:53:44.654Z,41.41
2018-03-19T01:54:44.677Z,41.60
2018-03-19T01:55:44.802Z,41.32
2018-03-19T01:56:44.862Z,41.51
2018-03-19T01:57:44.873Z,41.60
2018-03-19T01:58:44.934Z,41.51
2018-03-19T01:59:45.093Z,41.13
2018-03-19T02:00:45.046Z,41.22
2018-03-19T02:01:45.102Z,41.51
2018-03-19T02:02:45.165Z,41.51
2018-03-19T02:03:45.213Z,41.51
2018-03-19T02:04:45.266Z,41.60
2018-03-19T02:05:45.817Z,40.56
2018-03-19T02:06:45.637Z,40.75
2018-03-19T02:07:45.434Z,40.75
2018-03-19T02:08:45.538Z,39.81
2018-03-19T02:09:45.550Z,40.66
2018-03-19T02:10:45.622Z,40.94
2018-03-19T02:11:45.698Z,41.98
2018-03-19T02:12:45.731Z,40.94
2018-03-19T02:13:45.793Z,40.84
2018-03-19T02:14:45.890Z,40.56
2018-03-19T02:15:45.906Z,40.84
2018-03-19T02:16:45.975Z,39.90
2018-03-19T02:17:46.030Z,40.09
2018-03-19T02:18:46.503Z,40.56
2018-03-19T02:19:46.148Z,40.28
2018-03-19T02:20:46.203Z,40.09
2018-03-19T02:21:46.267Z,40.09
2018-03-19T02:22:46.487Z,40.56
2018-03-19T02:23:46.363Z,41.41
2018-03-19T02:24:46.459Z,41.98
2018-03-19T02:25:46.475Z,40.84
2018-03-19T02:26:46.539Z,40.56
2018-03-19T02:27:46.631Z,40.66
2018-03-19T02:28:46.695Z,40.66
2018-03-19T02:29:46.751Z,41.03
2018-03-19T02:30:46.796Z,41.41
2018-03-19T02:31:46.792Z,41.98
2018-03-19T02:32:46.895Z,41.51
2018-03-19T02:33:47.255Z,41.51
2018-03-19T02:34:46.998Z,41.51
2018-03-19T02:35:47.064Z,41.70
2018-03-19T02:36:47.120Z,42.55
2018-03-19T02:37:47.292Z,41.70
2018-03-19T02:38:47.238Z,41.51
2018-03-19T02:39:47.284Z,41.11
2018-03-19T02:40:47.344Z,41.41
2018-03-19T02:41:47.383Z,42.52
2018-03-19T02:42:47.821Z,42.34
2018-03-19T02:43:47.548Z,42.71
2018-03-19T02:44:47.596Z,42.52
2018-03-19T02:45:49.957Z,41.58
2018-03-19T02:46:47.689Z,41.20
2018-03-19T02:47:47.778Z,42.05
2018-03-19T02:48:47.820Z,41.58
2018-03-19T02:49:47.876Z,42.52
2018-03-19T02:50:47.893Z,42.43
2018-03-19T02:51:47.970Z,43.28
2018-03-19T02:52:48.124Z,42.43
2018-03-19T02:53:48.094Z,42.43
2018-03-19T02:54:48.132Z,43.09
2018-03-19T02:55:48.204Z,42.81
2018-03-19T02:56:48.260Z,42.24
2018-03-19T02:57:48.909Z,41.49
2018-03-19T02:58:48.368Z,41.58
2018-03-19T02:59:48.544Z,41.49
2018-03-19T03:00:48.497Z,41.20
2018-03-19T03:01:49.003Z,41.58
2018-03-19T03:02:48.592Z,41.49
2018-03-19T03:03:48.680Z,41.67
2018-03-19T03:04:49.497Z,41.58
2018-03-19T03:05:48.777Z,41.58
2018-03-19T03:06:48.816Z,41.49
2018-03-19T03:07:48.895Z,41.30
2018-03-19T03:08:49.013Z,41.58
2018-03-19T03:09:49.025Z,41.58
2018-03-19T03:10:49.053Z,42.52
2018-03-19T03:11:49.100Z,43.87
2018-03-19T03:12:49.748Z,43.30
2018-03-19T03:13:49.269Z,42.17
2018-03-19T03:14:49.286Z,42.55
2018-03-19T03:15:49.350Z,42.17
2018-03-19T03:16:51.605Z,42.17
2018-03-19T03:17:49.445Z,42.81
2018-03-19T03:18:49.537Z,42.83
2018-03-19T03:19:49.582Z,43.21
2018-03-19T03:20:49.621Z,42.93
2018-03-19T03:21:49.693Z,41.60
2018-03-19T03:22:49.785Z,40.56
2018-03-19T03:23:49.797Z,41.51
2018-03-19T03:24:49.889Z,41.98
2018-03-19T03:25:49.902Z,41.03
2018-03-19T03:26:49.973Z,41.51
2018-03-19T03:27:50.005Z,41.11
2018-03-19T03:28:50.110Z,41.58
2018-03-19T03:29:50.109Z,41.30
2018-03-19T03:30:50.186Z,41.02
2018-03-19T03:31:50.242Z,41.30
2018-03-19T03:32:50.306Z,41.20
2018-03-19T03:33:50.369Z,41.67
2018-03-19T03:34:52.134Z,42.34
2018-03-19T03:35:50.486Z,43.57
2018-03-19T03:36:50.521Z,42.90
2018-03-19T03:37:50.590Z,41.30
2018-03-19T03:38:50.630Z,40.83
2018-03-19T03:39:50.813Z,41.58
2018-03-19T03:40:50.741Z,42.62
2018-03-19T03:41:50.798Z,41.96
2018-03-19T03:42:50.857Z,41.67
2018-03-19T03:43:50.910Z,43.09
2018-03-19T03:44:50.998Z,42.93
2018-03-19T03:45:51.054Z,41.96
2018-03-19T03:46:51.150Z,41.30
2018-03-19T03:47:51.190Z,41.58
2018-03-19T03:48:51.222Z,41.58
2018-03-19T03:49:51.317Z,42.83
2018-03-19T03:50:51.490Z,42.27
2018-03-19T03:51:51.377Z,43.59
2018-03-19T03:52:51.418Z,42.17
2018-03-19T03:53:51.526Z,42.74
2018-03-19T03:54:51.866Z,43.02
2018-03-19T03:55:52.994Z,42.36
2018-03-19T03:56:51.646Z,41.60
2018-03-19T03:57:51.734Z,41.60
2018-03-19T03:58:51.810Z,41.51
2018-03-19T03:59:51.818Z,41.79
2018-03-19T04:00:52.981Z,41.70
2018-03-19T04:01:52.067Z,41.13
2018-03-19T04:02:51.991Z,41.13
2018-03-19T04:03:52.063Z,41.70
2018-03-19T04:04:52.139Z,41.32
2018-03-19T04:05:52.334Z,41.13
2018-03-19T04:06:52.266Z,42.27
2018-03-19T04:07:52.303Z,42.45
2018-03-19T04:08:52.343Z,42.64
2018-03-19T04:09:52.391Z,42.74
2018-03-19T04:10:52.463Z,42.36
2018-03-19T04:11:52.543Z,41.60
2018-03-19T04:12:52.555Z,41.13
2018-03-19T04:13:52.634Z,41.60
2018-03-19T04:14:52.695Z,41.20
2018-03-19T04:15:52.759Z,40.92
2018-03-19T04:16:52.815Z,41.20
2018-03-19T04:17:52.918Z,41.58
2018-03-19T04:18:52.915Z,42.05
2018-03-19T04:19:52.972Z,42.24
2018-03-19T04:20:53.027Z,42.43
2018-03-19T04:21:53.931Z,42.81
2018-03-19T04:22:53.116Z,42.05
2018-03-19T04:23:53.203Z,43.49
2018-03-19T04:24:53.251Z,43.49
2018-03-19T04:25:53.299Z,42.74
2018-03-19T04:26:53.515Z,42.55
2018-03-19T04:27:53.580Z,42.55
2018-03-19T04:28:53.475Z,42.45
2018-03-19T04:29:53.523Z,43.09
2018-03-19T04:30:53.579Z,43.49
2018-03-19T04:31:53.652Z,42.24
2018-03-19T04:32:53.724Z,41.39
2018-03-19T04:33:53.736Z,42.05
2018-03-19T04:34:53.808Z,42.43
2018-03-19T04:35:53.908Z,42.52
2018-03-19T04:36:53.947Z,42.71
2018-03-19T04:37:53.993Z,42.62
2018-03-19T04:38:54.044Z,42.43
2018-03-19T04:39:54.104Z,42.71
2018-03-19T04:40:54.152Z,43.57
2018-03-19T04:41:54.316Z,43.28
2018-03-19T04:42:54.284Z,43.76
2018-03-19T04:43:54.308Z,43.66
2018-03-19T04:44:54.356Z,43.57
2018-03-19T04:45:54.458Z,43.28
2018-03-19T04:46:54.505Z,43.57
2018-03-19T04:47:54.549Z,43.57
2018-03-19T04:48:54.589Z,43.19
2018-03-19T04:49:54.646Z,42.81
2018-03-19T04:50:54.693Z,42.81
2018-03-19T04:51:54.786Z,43.47
2018-03-19T04:52:54.841Z,44.23
2018-03-19T04:53:54.881Z,45.17
2018-03-19T04:54:54.930Z,43.66
2018-03-19T04:55:54.981Z,43.47
2018-03-19T04:56:55.061Z,42.43
2018-03-19T04:57:55.106Z,42.71
2018-03-19T04:58:55.162Z,42.34
2018-03-19T04:59:55.211Z,42.81
2018-03-19T05:00:55.449Z,42.15
2018-03-19T05:01:55.330Z,42.43
2018-03-19T05:02:55.385Z,43.38
2018-03-19T05:03:55.453Z,43.00
2018-03-19T05:04:55.497Z,43.38
2018-03-19T05:05:55.566Z,44.23
2018-03-19T05:06:55.622Z,45.08
2018-03-19T05:07:55.677Z,45.55
2018-03-19T05:08:55.722Z,45.08
2018-03-19T05:09:55.826Z,44.98
2018-03-19T05:10:55.826Z,44.42
2018-03-19T05:11:55.898Z,43.57
2018-03-19T05:12:55.960Z,43.00
2018-03-19T05:13:56.274Z,43.09
2018-03-19T05:14:56.063Z,42.81
2018-03-19T05:15:56.110Z,42.90
2018-03-19T05:16:56.330Z,43.66
2018-03-19T05:17:56.226Z,44.32
2018-03-19T05:18:56.277Z,43.19
2018-03-19T05:19:56.346Z,44.51
2018-03-19T05:20:56.402Z,45.27
2018-03-19T05:21:56.465Z,44.98
2018-03-19T05:22:56.524Z,44.42
2018-03-19T05:23:56.562Z,44.60
2018-03-19T05:24:56.814Z,45.17
2018-03-19T05:25:56.678Z,45.64
2018-03-19T05:26:56.738Z,45.74
2018-03-19T05:27:56.794Z,43.38
2018-03-19T05:28:56.842Z,43.09
2018-03-19T05:29:56.902Z,43.95
2018-03-19T05:30:56.958Z,44.32
2018-03-19T05:31:57.178Z,44.42
2018-03-19T05:32:57.087Z,44.13
2018-03-19T05:33:57.131Z,45.83
2018-03-19T05:34:57.183Z,44.32
2018-03-19T05:35:57.246Z,43.57
2018-03-19T05:36:57.311Z,43.09
2018-03-19T05:37:57.355Z,43.66
2018-03-19T05:38:57.430Z,43.19
2018-03-19T05:39:57.463Z,43.19
2018-03-19T05:40:57.544Z,42.81
2018-03-19T05:41:57.587Z,43.00
2018-03-19T05:42:57.655Z,43.85
2018-03-19T05:43:57.695Z,45.64
2018-03-19T05:44:57.747Z,46.78
2018-03-19T05:45:57.807Z,45.83
2018-03-19T05:46:57.872Z,44.60
2018-03-19T05:47:57.939Z,45.74
2018-03-19T05:48:57.979Z,44.51
2018-03-19T05:49:58.031Z,44.32
2018-03-19T05:50:58.101Z,45.64
2018-03-19T05:51:58.264Z,45.17
2018-03-19T05:52:58.204Z,44.23
2018-03-19T05:53:58.260Z,43.85
2018-03-19T05:54:58.315Z,43.47
2018-03-19T05:55:58.372Z,44.23
2018-03-19T05:56:58.436Z,44.51
2018-03-19T05:57:58.508Z,45.45
2018-03-19T05:58:59.276Z,45.36
2018-03-19T05:59:58.604Z,44.51
2018-03-19T06:00:58.652Z,43.35
2018-03-19T06:01:58.715Z,44.13
2018-03-19T06:02:58.776Z,44.32
2018-03-19T06:03:58.828Z,45.83
2018-03-19T06:04:58.894Z,45.08
2018-03-19T06:05:58.936Z,43.28
2018-03-19T06:06:59.004Z,44.70
2018-03-19T06:07:59.060Z,44.60
2018-03-19T06:08:59.124Z,45.17
2018-03-19T06:09:59.172Z,44.70
2018-03-19T06:10:59.236Z,44.51
2018-03-19T06:11:59.276Z,43.83
2018-03-19T06:13:01.284Z,44.39
2018-03-19T06:13:59.396Z,44.60
2018-03-19T06:14:59.453Z,45.64
2018-03-19T06:15:59.505Z,45.53
2018-03-19T06:16:59.556Z,44.89
2018-03-19T06:17:59.612Z,46.02
2018-03-19T06:18:59.797Z,46.12
2018-03-19T06:19:59.732Z,47.06
2018-03-19T06:20:59.811Z,46.97
2018-03-19T06:21:59.841Z,45.93
2018-03-19T06:22:59.898Z,44.79
2018-03-19T06:23:59.964Z,44.89
2018-03-19T06:25:00.019Z,44.04
2018-03-19T06:26:00.077Z,43.38
2018-03-19T06:27:00.133Z,45.64
2018-03-19T06:28:00.185Z,45.27
2018-03-19T06:29:00.237Z,44.60
2018-03-19T06:30:00.689Z,45.74
2018-03-19T06:31:00.354Z,44.89
2018-03-19T06:32:00.409Z,44.51
2018-03-19T06:33:00.465Z,45.55
2018-03-19T06:34:00.533Z,45.55
2018-03-19T06:35:00.578Z,44.60
2018-03-19T06:36:01.162Z,44.23
2018-03-19T06:37:00.693Z,43.19
2018-03-19T06:38:00.750Z,42.90
2018-03-19T06:39:00.801Z,43.00
2018-03-19T06:40:00.858Z,42.71
2018-03-19T06:41:00.969Z,43.38
2018-03-19T06:42:01.082Z,45.27
2018-03-19T06:43:01.030Z,43.85
2018-03-19T06:44:01.090Z,44.51
2018-03-19T06:45:01.153Z,44.34
2018-03-19T06:46:01.205Z,43.47
2018-03-19T06:47:01.266Z,43.59
2018-03-19T06:48:01.317Z,43.40
2018-03-19T06:49:01.370Z,43.59
2018-03-19T06:50:01.432Z,44.25
2018-03-19T06:51:01.483Z,44.91
2018-03-19T06:52:01.542Z,43.96
2018-03-19T06:53:01.608Z,44.06
2018-03-19T06:54:01.654Z,43.59
2018-03-19T06:55:01.710Z,43.49
2018-03-19T06:56:01.770Z,43.77
2018-03-19T06:57:01.843Z,42.93
2018-03-19T06:58:01.886Z,42.27
2018-03-19T06:59:01.941Z,41.60
2018-03-19T07:00:02.000Z,41.60
2018-03-19T07:01:02.059Z,42.17
2018-03-19T07:02:02.142Z,41.51
2018-03-19T07:03:02.166Z,41.89
2018-03-19T07:04:02.226Z,42.27
2018-03-19T07:05:02.291Z,41.32
2018-03-19T07:06:02.335Z,41.60
2018-03-19T07:07:02.406Z,43.49
2018-03-19T07:08:02.455Z,43.12
2018-03-19T07:09:02.512Z,42.93
2018-03-19T07:10:02.575Z,42.74
2018-03-19T07:11:02.618Z,42.17
2018-03-19T07:12:02.691Z,41.79
2018-03-19T07:13:02.742Z,42.17
2018-03-19T07:14:02.803Z,42.17
2018-03-19T07:15:02.865Z,41.60
2018-03-19T07:16:02.920Z,41.98
2018-03-19T07:17:02.983Z,42.55
2018-03-19T07:18:03.031Z,42.55
2018-03-19T07:19:03.079Z,43.21
2018-03-19T07:20:03.144Z,42.83
2018-03-19T07:21:03.195Z,42.74
2018-03-19T07:22:03.272Z,41.70
2018-03-19T07:23:03.311Z,41.51
2018-03-19T07:24:03.363Z,41.22
2018-03-19T07:25:03.423Z,41.13
2018-03-19T07:26:03.479Z,41.32
2018-03-19T07:27:03.540Z,41.60
2018-03-19T07:28:03.607Z,42.27
2018-03-19T07:29:03.644Z,43.30
2018-03-19T07:30:03.719Z,43.59
2018-03-19T07:31:03.764Z,43.30
2018-03-19T07:32:03.828Z,43.02
2018-03-19T07:33:03.895Z,42.57
2018-03-19T07:34:03.944Z,42.74
2018-03-19T07:35:04.010Z,42.85
2018-03-19T07:36:04.047Z,42.47
2018-03-19T07:37:04.225Z,42.38
2018-03-19T07:38:04.227Z,41.53
2018-03-19T07:39:04.224Z,41.63
2018-03-19T07:40:04.285Z,41.15
2018-03-19T07:41:04.372Z,39.83
2018-03-19T07:42:04.396Z,39.62
2018-03-19T07:43:04.456Z,40.94
2018-03-19T07:44:04.516Z,40.37
2018-03-19T07:45:04.568Z,41.98
2018-03-19T07:46:04.624Z,43.30
2018-03-19T07:47:04.696Z,43.61
2018-03-19T07:48:04.752Z,43.61
2018-03-19T07:49:04.792Z,42.83
2018-03-19T07:50:04.852Z,42.36
2018-03-19T07:51:04.981Z,41.44
2018-03-19T07:52:04.990Z,42.08
2018-03-19T07:53:05.032Z,42.66
2018-03-19T07:54:05.088Z,44.37
2018-03-19T07:55:05.153Z,43.99
2018-03-19T07:56:05.196Z,43.14
2018-03-19T07:57:05.254Z,42.38
2018-03-19T07:58:05.333Z,42.95
2018-03-19T07:59:05.368Z,42.00
2018-03-19T08:00:05.430Z,41.98
2018-03-19T08:01:05.481Z,42.47
2018-03-19T08:02:05.539Z,42.95
2018-03-19T08:03:05.609Z,41.72
2018-03-19T08:04:05.660Z,41.13
2018-03-19T08:05:05.709Z,41.98
2018-03-19T08:06:05.769Z,42.08
2018-03-19T08:07:05.825Z,42.64
2018-03-19T08:08:05.889Z,42.45
2018-03-19T08:09:05.945Z,43.52
2018-03-19T08:10:06.004Z,44.18
2018-03-19T08:11:06.055Z,43.71
2018-03-19T08:12:06.139Z,42.85
2018-03-19T08:13:06.178Z,42.85
2018-03-19T08:14:06.526Z,43.14
2018-03-19T08:15:06.286Z,43.52
2018-03-19T08:16:06.346Z,43.71
2018-03-19T08:17:06.399Z,43.71
2018-03-19T08:18:06.457Z,43.14
2018-03-19T08:19:06.517Z,42.76
2018-03-19T08:20:06.685Z,42.66
2018-03-19T08:21:06.638Z,42.29
2018-03-19T08:22:06.690Z,42.10
2018-03-19T08:23:06.742Z,42.29
2018-03-19T08:24:06.801Z,42.47
2018-03-19T08:25:06.867Z,43.23
2018-03-19T08:26:06.926Z,43.04
2018-03-19T08:27:06.975Z,42.95
2018-03-19T08:28:07.030Z,42.10
2018-03-19T08:29:07.091Z,42.10
2018-03-19T08:30:07.150Z,42.19
2018-03-19T08:31:07.230Z,41.91
2018-03-19T08:32:07.262Z,41.72
2018-03-19T08:33:07.318Z,42.38
2018-03-19T08:34:07.378Z,42.95
2018-03-19T08:35:07.434Z,41.63
2018-03-19T08:36:07.498Z,42.95
2018-03-19T08:37:07.555Z,42.19
2018-03-19T08:38:07.607Z,42.00
2018-03-19T08:39:07.668Z,42.38
2018-03-19T08:40:07.718Z,42.78
2018-03-19T08:41:07.782Z,42.57
2018-03-19T08:42:07.847Z,41.55
2018-03-19T08:43:07.892Z,42.00
2018-03-19T08:44:07.951Z,42.21
2018-03-19T08:45:08.007Z,42.02
2018-03-19T08:46:08.070Z,41.46
2018-03-19T08:47:08.131Z,41.46
2018-03-19T08:48:08.179Z,41.83
2018-03-19T08:49:08.239Z,41.27
2018-03-19T08:50:08.295Z,41.27
2018-03-19T08:51:08.359Z,42.02
2018-03-19T08:52:08.423Z,42.59
2018-03-19T08:53:08.467Z,42.40
2018-03-19T08:54:08.531Z,42.50
2018-03-19T08:55:08.583Z,42.50
2018-03-19T08:56:08.651Z,42.88
2018-03-19T08:57:08.702Z,41.27
2018-03-19T08:58:08.755Z,41.17
2018-03-19T08:59:08.815Z,40.98
2018-03-19T09:00:08.880Z,40.79
2018-03-19T09:01:08.939Z,41.27
2018-03-19T09:02:08.992Z,41.55
2018-03-19T09:03:09.043Z,41.55
2018-03-19T09:04:09.103Z,41.55
2018-03-19T09:05:09.160Z,41.64
2018-03-19T09:06:09.240Z,41.55
2018-03-19T09:07:09.279Z,41.74
2018-03-19T09:08:09.339Z,41.27
2018-03-19T09:09:09.387Z,41.64
2018-03-19T09:10:10.240Z,42.02
2018-03-19T09:11:09.511Z,42.11
2018-03-19T09:12:09.568Z,40.98
2018-03-19T09:13:09.620Z,41.55
2018-03-19T09:14:09.676Z,42.02
2018-03-19T09:15:09.736Z,41.64
2018-03-19T09:16:09.804Z,41.74
2018-03-19T09:17:09.868Z,40.79
2018-03-19T09:18:09.908Z,40.70
2018-03-19T09:19:09.972Z,40.89
2018-03-19T09:20:10.044Z,40.70
2018-03-19T09:21:10.112Z,40.79
2018-03-19T09:22:10.140Z,40.89
2018-03-19T09:23:10.213Z,40.13
2018-03-19T09:24:10.256Z,40.13
2018-03-19T09:25:10.353Z,40.70
2018-03-19T09:26:10.376Z,40.98
2018-03-19T09:27:10.436Z,40.79
2018-03-19T09:28:10.488Z,40.60
2018-03-19T09:29:10.544Z,40.22
2018-03-19T09:30:10.600Z,40.98
2018-03-19T09:31:10.670Z,40.98
2018-03-19T09:32:10.729Z,39.94
2018-03-19T09:33:10.777Z,40.98
2018-03-19T09:34:10.832Z,40.70
2018-03-19T09:35:10.959Z,40.60
2018-03-19T09:36:10.957Z,41.08
2018-03-19T09:37:11.017Z,41.46
2018-03-19T09:38:11.072Z,40.41
2018-03-19T09:39:11.124Z,39.87
2018-03-19T09:40:11.180Z,39.96
2018-03-19T09:41:11.257Z,39.75
2018-03-19T09:42:11.313Z,39.18
2018-03-19T09:43:11.368Z,39.58
2018-03-19T09:44:11.416Z,40.63
2018-03-19T09:45:11.474Z,40.63
2018-03-19T09:46:11.541Z,39.87
2018-03-19T09:47:11.597Z,40.81
2018-03-19T09:48:11.687Z,39.87
2018-03-19T09:49:11.717Z,40.25
2018-03-19T09:50:12.353Z,40.06
2018-03-19T09:51:14.514Z,39.58
2018-03-19T09:52:15.406Z,39.58
2018-03-19T09:53:11.973Z,39.20
2018-03-19T09:54:12.137Z,39.39
2018-03-19T09:55:14.833Z,39.01
2018-03-19T09:56:14.806Z,40.06
2018-03-19T09:57:14.266Z,39.77
2018-03-19T09:58:15.458Z,38.92
2018-03-19T09:59:13.781Z,38.35
2018-03-19T10:00:13.746Z,39.49
2018-03-19T10:01:14.489Z,39.87
2018-03-19T10:02:12.473Z,39.29
2018-03-19T10:03:13.674Z,38.73
2018-03-19T10:04:14.533Z,39.58
2018-03-19T10:05:14.246Z,39.20
2018-03-19T10:06:14.246Z,39.87
2018-03-19T10:07:14.459Z,38.92
2018-03-19T10:08:13.809Z,39.39
2018-03-19T10:09:13.799Z,38.64
2018-03-19T10:10:13.812Z,39.11
2018-03-19T10:11:13.166Z,38.54
2018-03-19T10:12:13.103Z,39.20
2018-03-19T10:13:14.782Z,38.82
2018-03-19T10:14:14.793Z,37.69
2018-03-19T10:15:16.326Z,38.07
2018-03-19T10:16:14.830Z,38.07
2018-03-19T10:17:14.530Z,38.35
2018-03-19T10:18:14.287Z,38.64
2018-03-19T10:19:16.310Z,39.39
2018-03-19T10:20:15.478Z,39.29
2018-03-19T10:21:16.322Z,39.58
2018-03-19T10:22:14.522Z,39.01
2018-03-19T10:23:16.315Z,39.29
2018-03-19T10:24:16.347Z,39.87
2018-03-19T10:25:14.798Z,39.68
2018-03-19T10:26:14.847Z,39.29
2018-03-19T10:27:14.795Z,39.39
2018-03-19T10:28:14.195Z,39.60
2018-03-19T10:29:14.831Z,39.60
2018-03-19T10:30:14.947Z,39.32
2018-03-19T10:31:14.851Z,39.70
2018-03-19T10:32:14.555Z,38.84
2018-03-19T10:33:14.863Z,38.84
2018-03-19T10:34:14.432Z,38.28
2018-03-19T10:35:14.491Z,37.52
2018-03-19T10:36:14.879Z,38.18
2018-03-19T10:37:15.375Z,38.65
2018-03-19T10:38:14.631Z,38.18
2018-03-19T10:39:14.700Z,39.32
2018-03-19T10:40:14.720Z,39.98
2018-03-19T10:41:14.775Z,39.22
2018-03-19T10:42:14.875Z,39.32
2018-03-19T10:43:14.913Z,38.28
2018-03-19T10:44:14.971Z,37.90
2018-03-19T10:45:15.052Z,37.71
2018-03-19T10:46:15.123Z,36.95
2018-03-19T10:47:15.177Z,38.18
2018-03-19T10:48:15.247Z,38.18
2018-03-19T10:49:15.284Z,38.84
2018-03-19T10:50:15.354Z,38.65
2018-03-19T10:51:15.420Z,38.18
2018-03-19T10:52:15.480Z,37.71
2018-03-19T10:53:15.500Z,37.61
2018-03-19T10:54:15.580Z,37.71
2018-03-19T10:55:15.720Z,37.52
2018-03-19T10:56:15.712Z,37.23
2018-03-19T10:57:15.885Z,36.76
2018-03-19T10:58:15.792Z,37.14
2018-03-19T10:59:15.872Z,37.23
2018-03-19T11:00:15.960Z,36.76
2018-03-19T11:01:16.227Z,35.53
2018-03-19T11:02:16.217Z,36.38
2018-03-19T11:03:16.085Z,36.85
2018-03-19T11:04:16.146Z,36.95
2018-03-19T11:05:16.205Z,36.76
2018-03-19T11:06:16.435Z,36.29
2018-03-19T11:07:16.460Z,36.19
2018-03-19T11:08:16.476Z,36.10
2018-03-19T11:09:16.557Z,36.30
2018-03-19T11:10:16.489Z,36.97
2018-03-19T11:11:16.532Z,37.44
2018-03-19T11:12:19.677Z,38.10
2018-03-19T11:13:17.140Z,38.01
2018-03-19T11:14:16.937Z,37.35
2018-03-19T11:15:17.413Z,36.49
2018-03-19T11:16:16.953Z,36.59
2018-03-19T11:17:16.908Z,35.45
2018-03-19T11:18:17.285Z,36.02
2018-03-19T11:19:17.051Z,36.11
2018-03-19T11:20:17.109Z,36.30
2018-03-19T11:21:17.261Z,36.59
2018-03-19T11:22:17.353Z,36.68
2018-03-19T11:23:17.297Z,36.21
2018-03-19T11:24:17.497Z,35.47
2018-03-19T11:25:17.457Z,34.99
2018-03-19T11:26:17.521Z,34.90
2018-03-19T11:27:17.658Z,34.80
2018-03-19T11:28:17.605Z,35.38
2018-03-19T11:29:17.622Z,34.80
2018-03-19T11:30:17.869Z,34.73
2018-03-19T11:31:17.832Z,34.84
2018-03-19T11:32:17.947Z,32.69
2018-03-19T11:33:17.898Z,30.25
2018-03-19T11:34:18.038Z,27.04
2018-03-19T11:35:18.033Z,25.91
2018-03-19T11:36:18.057Z,24.59
2018-03-19T11:37:18.294Z,23.36
2018-03-19T11:38:18.290Z,21.84
2018-03-19T11:39:18.250Z,21.48
2018-03-19T11:40:18.298Z,20.83
2018-03-19T11:41:18.389Z,20.16
2018-03-19T11:42:18.450Z,19.70
2018-03-19T11:43:18.566Z,17.98
2018-03-19T11:44:18.570Z,17.41
2018-03-19T11:45:18.666Z,18.07
2018-03-19T11:46:18.698Z,17.61
2018-03-19T11:47:18.829Z,16.27
2018-03-19T11:48:18.842Z,16.47
2018-03-19T11:49:18.894Z,15.14
2018-03-19T11:50:18.995Z,16.11
2018-03-19T11:51:19.039Z,15.54
2018-03-19T11:52:19.123Z,15.55
2018-03-19T11:53:19.202Z,14.88
2018-03-19T11:54:19.242Z,13.82
2018-03-19T11:55:19.291Z,13.64
2018-03-19T11:56:19.362Z,13.64
2018-03-19T11:57:19.442Z,13.64
2018-03-19T11:58:19.526Z,13.16
2018-03-19T11:59:19.610Z,12.68
2018-03-19T12:00:20.267Z,12.96
2018-03-19T12:01:19.782Z,13.44
2018-03-19T12:02:19.819Z,13.15
2018-03-19T12:03:19.890Z,13.15
2018-03-19T12:04:19.943Z,13.14
2018-03-19T12:05:20.035Z,12.85
2018-03-19T12:06:20.115Z,13.04
2018-03-19T12:07:20.204Z,13.13
2018-03-19T12:08:20.411Z,13.23
2018-03-19T12:09:20.339Z,13.81
2018-03-19T12:10:20.371Z,14.58
2018-03-19T12:11:20.451Z,14.09
2018-03-19T12:12:20.584Z,13.71
2018-03-19T12:13:20.708Z,13.92
2018-03-19T12:14:20.684Z,13.54
2018-03-19T12:15:20.823Z,13.26
2018-03-19T12:16:20.888Z,13.15
2018-03-19T12:17:20.943Z,13.06
2018-03-19T12:18:21.136Z,12.19
2018-03-19T12:19:21.045Z,13.64
2018-03-19T12:20:21.100Z,14.31
2018-03-19T12:21:21.196Z,13.16
2018-03-19T12:22:21.536Z,13.06
2018-03-19T12:23:21.304Z,13.74
2018-03-19T12:24:21.515Z,12.98
2018-03-19T12:25:21.465Z,12.21
2018-03-19T12:26:21.553Z,12.70
2018-03-19T12:27:21.640Z,12.50
2018-03-19T12:28:21.680Z,11.93
2018-03-19T12:29:21.832Z,12.12
2018-03-19T12:30:21.828Z,11.35
2018-03-19T12:31:21.893Z,10.58
2018-03-19T12:32:21.980Z,10.97
2018-03-19T12:33:22.055Z,11.45
2018-03-19T12:34:22.296Z,12.22
2018-03-19T12:35:22.280Z,12.02
2018-03-19T12:36:22.285Z,11.07
2018-03-19T12:37:22.348Z,11.16
2018-03-19T12:38:22.412Z,10.59
2018-03-19T12:39:24.825Z,11.07
2018-03-19T12:40:22.669Z,10.59
2018-03-19T12:41:22.636Z,10.39
2018-03-19T12:42:22.761Z,10.88
2018-03-19T12:43:22.792Z,12.13
2018-03-19T12:44:22.951Z,12.04
2018-03-19T12:45:22.972Z,11.17
2018-03-19T12:46:23.159Z,10.20
2018-03-19T12:47:23.094Z,10.01
2018-03-19T12:48:23.196Z,10.68
2018-03-19T12:50:23.336Z,11.46
2018-03-19T12:51:23.449Z,11.26
2018-03-19T12:52:23.469Z,12.13
2018-03-19T12:53:23.575Z,11.46
2018-03-19T12:54:23.725Z,11.07